sensor_id;sensor_type;location;lat;lon;timestamp;temperature;humidity
52211;DHT22;38179;52.756;6.906;2023-07-28T00:02:11;17.50;99.90
52211;DHT22;38179;52.756;6.906;2023-07-28T00:04:37;17.60;99.90
52211;DHT22;38179;52.756;6.906;2023-07-28T00:07:04;17.60;99.90
52211;DHT22;38179;52.756;6.906;2023-07-28T00:09:30;17.60;99.90
52211;DHT22;38179;52.756;6.906;2023-07-28T00:11:57;17.50;99.90
52211;DHT22;38179;52.756;6.906;2023-07-28T00:14:24;17.60;99.90
52211;DHT22;38179;52.756;6.906;2023-07-28T00:16:55;17.60;99.90
52211;DHT22;38179;52.756;6.906;2023-07-28T00:19:21;17.60;99.90
52211;DHT22;38179;52.756;6.906;2023-07-28T00:21:51;17.50;99.90
52211;DHT22;38179;52.756;6.906;2023-07-28T00:24:17;17.60;99.90
52211;DHT22;38179;52.756;6.906;2023-07-28T00:26:44;17.50;99.90
52211;DHT22;38179;52.756;6.906;2023-07-28T00:29:10;17.60;99.90
52211;DHT22;38179;52.756;6.906;2023-07-28T00:31:36;17.60;99.90
52211;DHT22;38179;52.756;6.906;2023-07-28T00:34:02;17.50;99.90
52211;DHT22;38179;52.756;6.906;2023-07-28T00:36:29;17.50;99.90
52211;DHT22;38179;52.756;6.906;2023-07-28T00:38:55;17.60;99.90
52211;DHT22;38179;52.756;6.906;2023-07-28T00:41:21;17.50;99.90
52211;DHT22;38179;52.756;6.906;2023-07-28T00:43:47;17.60;99.90
52211;DHT22;38179;52.756;6.906;2023-07-28T00:46:13;17.50;99.90
52211;DHT22;38179;52.756;6.906;2023-07-28T00:48:40;17.60;99.90
52211;DHT22;38179;52.756;6.906;2023-07-28T00:51:07;17.60;99.90
52211;DHT22;38179;52.756;6.906;2023-07-28T00:53:33;17.60;99.90
52211;DHT22;38179;52.756;6.906;2023-07-28T00:56:00;17.50;99.90
52211;DHT22;38179;52.756;6.906;2023-07-28T00:58:27;17.50;99.90
52211;DHT22;38179;52.756;6.906;2023-07-28T01:00:53;17.50;99.90
52211;DHT22;38179;52.756;6.906;2023-07-28T01:03:20;17.50;99.90
52211;DHT22;38179;52.756;6.906;2023-07-28T01:06:14;17.60;99.90
52211;DHT22;38179;52.756;6.906;2023-07-28T01:08:49;17.50;99.90
52211;DHT22;38179;52.756;6.906;2023-07-28T01:11:19;17.50;99.90
52211;DHT22;38179;52.756;6.906;2023-07-28T01:13:46;17.50;99.90
52211;DHT22;38179;52.756;6.906;2023-07-28T01:16:12;17.50;99.90
52211;DHT22;38179;52.756;6.906;2023-07-28T01:18:38;17.50;99.90
52211;DHT22;38179;52.756;6.906;2023-07-28T01:21:06;17.50;99.90
52211;DHT22;38179;52.756;6.906;2023-07-28T01:24:05;17.50;
52211;DHT22;38179;52.756;6.906;2023-07-28T01:26:39;17.50;99.90
52211;DHT22;38179;52.756;6.906;2023-07-28T01:29:06;17.50;99.90
52211;DHT22;38179;52.756;6.906;2023-07-28T01:31:48;17.50;99.90
52211;DHT22;38179;52.756;6.906;2023-07-28T01:34:14;17.50;99.90
52211;DHT22;38179;52.756;6.906;2023-07-28T01:36:40;17.50;99.90
52211;DHT22;38179;52.756;6.906;2023-07-28T01:39:06;17.50;99.90
52211;DHT22;38179;52.756;6.906;2023-07-28T01:41:32;17.50;99.90
52211;DHT22;38179;52.756;6.906;2023-07-28T01:43:58;17.50;99.90
52211;DHT22;38179;52.756;6.906;2023-07-28T01:46:24;17.50;99.90
52211;DHT22;38179;52.756;6.906;2023-07-28T01:48:50;17.50;99.90
52211;DHT22;38179;52.756;6.906;2023-07-28T01:51:16;17.50;99.90
52211;DHT22;38179;52.756;6.906;2023-07-28T01:53:41;17.50;99.90
52211;DHT22;38179;52.756;6.906;2023-07-28T01:56:07;17.50;99.90
52211;DHT22;38179;52.756;6.906;2023-07-28T01:58:33;17.50;99.90
52211;DHT22;38179;52.756;6.906;2023-07-28T02:00:59;17.50;99.90
52211;DHT22;38179;52.756;6.906;2023-07-28T02:03:25;17.50;99.90
52211;DHT22;38179;52.756;6.906;2023-07-28T02:05:51;17.50;99.90
52211;DHT22;38179;52.756;6.906;2023-07-28T02:08:18;17.50;99.90
52211;DHT22;38179;52.756;6.906;2023-07-28T02:10:44;17.50;99.90
52211;DHT22;38179;52.756;6.906;2023-07-28T02:13:10;17.50;99.90
52211;DHT22;38179;52.756;6.906;2023-07-28T02:15:36;17.50;99.90
52211;DHT22;38179;52.756;6.906;2023-07-28T02:18:02;17.50;99.90
52211;DHT22;38179;52.756;6.906;2023-07-28T02:20:28;17.50;99.90
52211;DHT22;38179;52.756;6.906;2023-07-28T02:22:54;17.50;99.90
52211;DHT22;38179;52.756;6.906;2023-07-28T02:25:20;17.50;99.90
52211;DHT22;38179;52.756;6.906;2023-07-28T02:27:46;17.50;99.90
52211;DHT22;38179;52.756;6.906;2023-07-28T02:30:11;17.50;99.90
52211;DHT22;38179;52.756;6.906;2023-07-28T02:32:37;17.50;99.90
52211;DHT22;38179;52.756;6.906;2023-07-28T02:35:03;17.50;99.90
52211;DHT22;38179;52.756;6.906;2023-07-28T02:37:30;17.50;99.90
52211;DHT22;38179;52.756;6.906;2023-07-28T02:39:56;17.50;99.90
52211;DHT22;38179;52.756;6.906;2023-07-28T02:42:22;17.50;99.90
52211;DHT22;38179;52.756;6.906;2023-07-28T02:44:49;17.50;99.90
52211;DHT22;38179;52.756;6.906;2023-07-28T02:47:15;17.50;99.90
52211;DHT22;38179;52.756;6.906;2023-07-28T02:49:41;17.50;99.90
52211;DHT22;38179;52.756;6.906;2023-07-28T02:52:08;17.50;99.90
52211;DHT22;38179;52.756;6.906;2023-07-28T02:54:34;17.50;99.90
52211;DHT22;38179;52.756;6.906;2023-07-28T02:57:00;17.50;99.90
52211;DHT22;38179;52.756;6.906;2023-07-28T02:59:26;17.50;99.90
52211;DHT22;38179;52.756;6.906;2023-07-28T03:01:52;17.50;99.90
52211;DHT22;38179;52.756;6.906;2023-07-28T03:04:19;17.50;99.90
52211;DHT22;38179;52.756;6.906;2023-07-28T03:06:48;17.50;99.90
52211;DHT22;38179;52.756;6.906;2023-07-28T03:09:14;17.50;99.90
52211;DHT22;38179;52.756;6.906;2023-07-28T03:11:42;17.50;99.90
52211;DHT22;38179;52.756;6.906;2023-07-28T03:14:09;17.50;99.90
52211;DHT22;38179;52.756;6.906;2023-07-28T03:16:35;17.50;99.90
52211;DHT22;38179;52.756;6.906;2023-07-28T03:19:01;17.50;99.90
52211;DHT22;38179;52.756;6.906;2023-07-28T03:21:30;17.50;99.90
52211;DHT22;38179;52.756;6.906;2023-07-28T03:23:56;17.50;99.90
52211;DHT22;38179;52.756;6.906;2023-07-28T03:26:22;17.50;99.90
52211;DHT22;38179;52.756;6.906;2023-07-28T03:28:48;17.50;99.90
52211;DHT22;38179;52.756;6.906;2023-07-28T03:31:14;17.50;99.90
52211;DHT22;38179;52.756;6.906;2023-07-28T03:33:40;17.50;99.90
52211;DHT22;38179;52.756;6.906;2023-07-28T03:36:06;17.50;99.90
52211;DHT22;38179;52.756;6.906;2023-07-28T03:38:32;17.50;99.90
52211;DHT22;38179;52.756;6.906;2023-07-28T03:40:58;17.50;99.90
52211;DHT22;38179;52.756;6.906;2023-07-28T03:43:24;17.50;99.90
52211;DHT22;38179;52.756;6.906;2023-07-28T03:45:50;17.50;99.90
52211;DHT22;38179;52.756;6.906;2023-07-28T03:48:22;17.50;99.90
52211;DHT22;38179;52.756;6.906;2023-07-28T03:53:32;17.50;99.90
52211;DHT22;38179;52.756;6.906;2023-07-28T03:56:02;17.50;99.90
52211;DHT22;38179;52.756;6.906;2023-07-28T03:58:28;17.50;99.90
52211;DHT22;38179;52.756;6.906;2023-07-28T04:00:55;17.50;99.90
52211;DHT22;38179;52.756;6.906;2023-07-28T04:03:21;17.50;99.90
52211;DHT22;38179;52.756;6.906;2023-07-28T04:05:46;17.50;99.90
52211;DHT22;38179;52.756;6.906;2023-07-28T04:08:12;17.50;99.90
52211;DHT22;38179;52.756;6.906;2023-07-28T04:10:38;17.50;99.90
52211;DHT22;38179;52.756;6.906;2023-07-28T04:13:04;17.50;99.90
52211;DHT22;38179;52.756;6.906;2023-07-28T04:15:30;17.50;99.90
52211;DHT22;38179;52.756;6.906;2023-07-28T04:17:56;17.50;99.90
52211;DHT22;38179;52.756;6.906;2023-07-28T04:20:22;17.50;99.90
52211;DHT22;38179;52.756;6.906;2023-07-28T04:22:48;17.50;99.90
52211;DHT22;38179;52.756;6.906;2023-07-28T04:25:14;17.50;99.90
52211;DHT22;38179;52.756;6.906;2023-07-28T04:27:39;17.50;99.90
52211;DHT22;38179;52.756;6.906;2023-07-28T04:30:06;17.50;99.90
52211;DHT22;38179;52.756;6.906;2023-07-28T04:32:32;17.50;99.90
52211;DHT22;38179;52.756;6.906;2023-07-28T04:34:58;17.50;99.90
52211;DHT22;38179;52.756;6.906;2023-07-28T04:37:24;17.60;99.90
52211;DHT22;38179;52.756;6.906;2023-07-28T04:39:50;17.50;99.90
52211;DHT22;38179;52.756;6.906;2023-07-28T04:42:16;17.50;99.90
52211;DHT22;38179;52.756;6.906;2023-07-28T04:44:42;17.50;99.90
52211;DHT22;38179;52.756;6.906;2023-07-28T04:47:08;17.50;99.90
52211;DHT22;38179;52.756;6.906;2023-07-28T04:49:34;17.50;99.90
52211;DHT22;38179;52.756;6.906;2023-07-28T04:51:59;17.50;99.90
52211;DHT22;38179;52.756;6.906;2023-07-28T04:54:25;17.60;99.90
52211;DHT22;38179;52.756;6.906;2023-07-28T04:56:51;17.50;99.90
52211;DHT22;38179;52.756;6.906;2023-07-28T04:59:18;17.50;99.90
52211;DHT22;38179;52.756;6.906;2023-07-28T05:01:44;17.60;99.90
52211;DHT22;38179;52.756;6.906;2023-07-28T05:04:10;17.60;99.90
52211;DHT22;38179;52.756;6.906;2023-07-28T05:06:36;17.60;99.90
52211;DHT22;38179;52.756;6.906;2023-07-28T05:09:02;17.60;99.90
52211;DHT22;38179;52.756;6.906;2023-07-28T05:11:28;17.60;99.90
52211;DHT22;38179;52.756;6.906;2023-07-28T05:13:54;17.60;99.90
52211;DHT22;38179;52.756;6.906;2023-07-28T05:16:20;17.60;99.90
52211;DHT22;38179;52.756;6.906;2023-07-28T05:18:45;17.60;99.90
52211;DHT22;38179;52.756;6.906;2023-07-28T05:21:11;17.60;99.90
52211;DHT22;38179;52.756;6.906;2023-07-28T05:23:37;17.60;99.90
52211;DHT22;38179;52.756;6.906;2023-07-28T05:26:03;17.60;99.90
52211;DHT22;38179;52.756;6.906;2023-07-28T05:28:33;17.60;99.90
52211;DHT22;38179;52.756;6.906;2023-07-28T05:31:06;17.60;99.90
52211;DHT22;38179;52.756;6.906;2023-07-28T05:33:32;17.60;99.90
52211;DHT22;38179;52.756;6.906;2023-07-28T05:36:02;17.60;99.90
52211;DHT22;38179;52.756;6.906;2023-07-28T05:38:31;17.60;99.90
52211;DHT22;38179;52.756;6.906;2023-07-28T05:40:59;17.60;99.90
52211;DHT22;38179;52.756;6.906;2023-07-28T05:43:32;17.60;99.90
52211;DHT22;38179;52.756;6.906;2023-07-28T05:45:59;17.60;99.90
52211;DHT22;38179;52.756;6.906;2023-07-28T05:48:25;17.60;99.90
52211;DHT22;38179;52.756;6.906;2023-07-28T05:50:51;17.60;99.90
52211;DHT22;38179;52.756;6.906;2023-07-28T05:53:20;17.60;99.90
52211;DHT22;38179;52.756;6.906;2023-07-28T05:55:49;17.70;99.90
52211;DHT22;38179;52.756;6.906;2023-07-28T05:58:15;17.70;99.90
52211;DHT22;38179;52.756;6.906;2023-07-28T06:00:41;17.70;99.90
52211;DHT22;38179;52.756;6.906;2023-07-28T06:05:39;17.70;99.90
52211;DHT22;38179;52.756;6.906;2023-07-28T06:08:06;17.70;99.90
52211;DHT22;38179;52.756;6.906;2023-07-28T06:10:32;17.70;99.90
52211;DHT22;38179;52.756;6.906;2023-07-28T06:12:58;17.70;99.90
52211;DHT22;38179;52.756;6.906;2023-07-28T06:15:24;17.70;99.90
52211;DHT22;38179;52.756;6.906;2023-07-28T06:17:50;17.70;99.90
52211;DHT22;38179;52.756;6.906;2023-07-28T06:20:16;17.80;99.90
52211;DHT22;38179;52.756;6.906;2023-07-28T06:22:42;17.80;99.90
52211;DHT22;38179;52.756;6.906;2023-07-28T06:25:08;17.80;99.90
52211;DHT22;38179;52.756;6.906;2023-07-28T06:27:34;17.80;99.90
52211;DHT22;38179;52.756;6.906;2023-07-28T06:30:00;17.80;99.90
52211;DHT22;38179;52.756;6.906;2023-07-28T06:32:26;17.80;99.90
52211;DHT22;38179;52.756;6.906;2023-07-28T06:34:56;17.90;99.90
52211;DHT22;38179;52.756;6.906;2023-07-28T06:37:23;17.90;99.90
52211;DHT22;38179;52.756;6.906;2023-07-28T06:39:50;17.90;99.90
52211;DHT22;38179;52.756;6.906;2023-07-28T06:42:16;17.90;99.90
52211;DHT22;38179;52.756;6.906;2023-07-28T06:44:52;18.00;99.90
52211;DHT22;38179;52.756;6.906;2023-07-28T06:47:18;18.00;99.90
52211;DHT22;38179;52.756;6.906;2023-07-28T06:49:44;18.10;99.90
52211;DHT22;38179;52.756;6.906;2023-07-28T06:52:10;18.10;99.90
52211;DHT22;38179;52.756;6.906;2023-07-28T06:54:36;18.20;99.90
52211;DHT22;38179;52.756;6.906;2023-07-28T06:57:02;18.20;99.90
52211;DHT22;38179;52.756;6.906;2023-07-28T06:59:28;18.20;99.90
52211;DHT22;38179;52.756;6.906;2023-07-28T07:01:54;18.30;99.90
52211;DHT22;38179;52.756;6.906;2023-07-28T07:04:20;18.30;99.90
52211;DHT22;38179;52.756;6.906;2023-07-28T07:06:46;18.40;99.90
52211;DHT22;38179;52.756;6.906;2023-07-28T07:09:12;18.40;99.90
52211;DHT22;38179;52.756;6.906;2023-07-28T07:11:41;18.40;99.90
52211;DHT22;38179;52.756;6.906;2023-07-28T07:14:07;18.50;99.90
52211;DHT22;38179;52.756;6.906;2023-07-28T07:16:34;18.50;99.90
52211;DHT22;38179;52.756;6.906;2023-07-28T07:19:00;18.60;99.90
52211;DHT22;38179;52.756;6.906;2023-07-28T07:21:27;18.60;99.90
52211;DHT22;38179;52.756;6.906;2023-07-28T07:23:53;18.60;99.90
52211;DHT22;38179;52.756;6.906;2023-07-28T07:26:19;18.60;99.90
52211;DHT22;38179;52.756;6.906;2023-07-28T07:28:45;18.60;99.90
52211;DHT22;38179;52.756;6.906;2023-07-28T07:31:14;18.60;99.90
52211;DHT22;38179;52.756;6.906;2023-07-28T07:33:41;18.60;99.90
52211;DHT22;38179;52.756;6.906;2023-07-28T07:36:14;18.60;99.90
52211;DHT22;38179;52.756;6.906;2023-07-28T07:38:40;18.60;99.90
52211;DHT22;38179;52.756;6.906;2023-07-28T07:41:07;18.60;99.90
52211;DHT22;38179;52.756;6.906;2023-07-28T07:43:34;18.70;99.90
52211;DHT22;38179;52.756;6.906;2023-07-28T07:46:00;18.70;99.90
52211;DHT22;38179;52.756;6.906;2023-07-28T07:48:26;18.60;99.90
52211;DHT22;38179;52.756;6.906;2023-07-28T07:50:52;18.60;99.90
52211;DHT22;38179;52.756;6.906;2023-07-28T07:53:17;18.60;99.90
52211;DHT22;38179;52.756;6.906;2023-07-28T07:55:43;18.60;99.90
52211;DHT22;38179;52.756;6.906;2023-07-28T07:58:09;18.60;99.90
52211;DHT22;38179;52.756;6.906;2023-07-28T08:00:37;18.60;99.90
52211;DHT22;38179;52.756;6.906;2023-07-28T08:03:04;18.60;99.90
52211;DHT22;38179;52.756;6.906;2023-07-28T08:05:31;18.60;99.90
52211;DHT22;38179;52.756;6.906;2023-07-28T08:07:57;18.70;99.90
52211;DHT22;38179;52.756;6.906;2023-07-28T08:10:23;18.70;99.90
52211;DHT22;38179;52.756;6.906;2023-07-28T08:12:49;18.70;99.90
52211;DHT22;38179;52.756;6.906;2023-07-28T08:15:16;18.80;99.90
52211;DHT22;38179;52.756;6.906;2023-07-28T08:17:42;18.90;99.90
52211;DHT22;38179;52.756;6.906;2023-07-28T08:20:20;18.80;99.90
52211;DHT22;38179;52.756;6.906;2023-07-28T08:22:46;18.90;99.90
52211;DHT22;38179;52.756;6.906;2023-07-28T08:25:12;18.90;99.90
52211;DHT22;38179;52.756;6.906;2023-07-28T08:27:38;18.90;99.90
52211;DHT22;38179;52.756;6.906;2023-07-28T08:30:04;19.00;99.90
52211;DHT22;38179;52.756;6.906;2023-07-28T08:32:31;19.10;99.90
52211;DHT22;38179;52.756;6.906;2023-07-28T08:34:56;19.20;99.90
52211;DHT22;38179;52.756;6.906;2023-07-28T08:37:22;19.20;99.90
52211;DHT22;38179;52.756;6.906;2023-07-28T08:39:48;19.20;99.90
52211;DHT22;38179;52.756;6.906;2023-07-28T08:42:14;19.30;99.90
52211;DHT22;38179;52.756;6.906;2023-07-28T08:44:41;19.30;99.90
52211;DHT22;38179;52.756;6.906;2023-07-28T08:47:07;19.40;99.90
52211;DHT22;38179;52.756;6.906;2023-07-28T08:49:33;19.40;99.90
52211;DHT22;38179;52.756;6.906;2023-07-28T08:52:02;19.40;99.90
52211;DHT22;38179;52.756;6.906;2023-07-28T08:54:29;19.50;99.90
52211;DHT22;38179;52.756;6.906;2023-07-28T08:56:57;19.60;99.90
52211;DHT22;38179;52.756;6.906;2023-07-28T08:59:29;19.60;99.90
52211;DHT22;38179;52.756;6.906;2023-07-28T09:01:57;19.70;99.90
52211;DHT22;38179;52.756;6.906;2023-07-28T09:04:27;19.80;99.90
52211;DHT22;38179;52.756;6.906;2023-07-28T09:06:53;19.80;99.90
52211;DHT22;38179;52.756;6.906;2023-07-28T09:09:21;19.80;99.90
52211;DHT22;38179;52.756;6.906;2023-07-28T09:11:50;19.90;99.90
52211;DHT22;38179;52.756;6.906;2023-07-28T09:14:18;20.00;99.90
52211;DHT22;38179;52.756;6.906;2023-07-28T09:16:45;20.00;99.90
52211;DHT22;38179;52.756;6.906;2023-07-28T09:19:11;20.10;99.90
52211;DHT22;38179;52.756;6.906;2023-07-28T09:21:42;20.20;99.90
52211;DHT22;38179;52.756;6.906;2023-07-28T09:24:12;20.30;99.90
52211;DHT22;38179;52.756;6.906;2023-07-28T09:26:43;20.30;99.90
52211;DHT22;38179;52.756;6.906;2023-07-28T09:31:39;20.40;99.90
52211;DHT22;38179;52.756;6.906;2023-07-28T09:34:09;20.40;99.90
52211;DHT22;38179;52.756;6.906;2023-07-28T09:36:36;20.30;99.90
52211;DHT22;38179;52.756;6.906;2023-07-28T09:39:05;20.40;99.90
52211;DHT22;38179;52.756;6.906;2023-07-28T09:41:38;20.40;99.90
52211;DHT22;38179;52.756;6.906;2023-07-28T09:44:07;20.40;99.90
52211;DHT22;38179;52.756;6.906;2023-07-28T09:46:35;20.40;99.90
52211;DHT22;38179;52.756;6.906;2023-07-28T09:49:05;20.40;99.90
52211;DHT22;38179;52.756;6.906;2023-07-28T09:51:33;20.40;99.90
52211;DHT22;38179;52.756;6.906;2023-07-28T09:54:12;20.40;99.90
52211;DHT22;38179;52.756;6.906;2023-07-28T09:56:46;20.40;99.90
52211;DHT22;38179;52.756;6.906;2023-07-28T09:59:17;20.40;99.90
52211;DHT22;38179;52.756;6.906;2023-07-28T10:01:44;20.40;99.90
52211;DHT22;38179;52.756;6.906;2023-07-28T10:04:11;20.50;99.90
52211;DHT22;38179;52.756;6.906;2023-07-28T10:06:37;20.50;99.90
52211;DHT22;38179;52.756;6.906;2023-07-28T10:09:04;20.40;99.90
52211;DHT22;38179;52.756;6.906;2023-07-28T10:11:34;20.40;99.90
52211;DHT22;38179;52.756;6.906;2023-07-28T10:14:00;20.40;99.90
52211;DHT22;38179;52.756;6.906;2023-07-28T10:16:39;20.30;99.90
52211;DHT22;38179;52.756;6.906;2023-07-28T10:19:05;20.30;99.90
52211;DHT22;38179;52.756;6.906;2023-07-28T10:21:31;20.40;99.90
52211;DHT22;38179;52.756;6.906;2023-07-28T10:23:58;20.50;99.90
52211;DHT22;38179;52.756;6.906;2023-07-28T10:26:34;20.50;99.90
52211;DHT22;38179;52.756;6.906;2023-07-28T10:29:14;20.50;99.90
52211;DHT22;38179;52.756;6.906;2023-07-28T10:31:54;20.50;99.90
52211;DHT22;38179;52.756;6.906;2023-07-28T10:34:21;20.50;99.90
52211;DHT22;38179;52.756;6.906;2023-07-28T10:36:56;20.40;99.90
52211;DHT22;38179;52.756;6.906;2023-07-28T10:39:23;20.40;99.90
52211;DHT22;38179;52.756;6.906;2023-07-28T10:44:32;20.40;99.90
52211;DHT22;38179;52.756;6.906;2023-07-28T10:46:58;20.40;99.90
52211;DHT22;38179;52.756;6.906;2023-07-28T10:49:28;20.30;99.90
52211;DHT22;38179;52.756;6.906;2023-07-28T10:51:54;20.30;99.90
52211;DHT22;38179;52.756;6.906;2023-07-28T10:54:20;20.30;99.90
52211;DHT22;38179;52.756;6.906;2023-07-28T10:56:47;20.40;99.90
52211;DHT22;38179;52.756;6.906;2023-07-28T10:59:14;20.40;99.90
52211;DHT22;38179;52.756;6.906;2023-07-28T11:01:43;20.50;99.90
52211;DHT22;38179;52.756;6.906;2023-07-28T11:04:12;20.60;99.90
52211;DHT22;38179;52.756;6.906;2023-07-28T11:06:46;20.60;99.90
52211;DHT22;38179;52.756;6.906;2023-07-28T11:09:14;20.60;99.90
52211;DHT22;38179;52.756;6.906;2023-07-28T11:11:41;20.50;99.90
52211;DHT22;38179;52.756;6.906;2023-07-28T11:14:08;20.50;99.90
52211;DHT22;38179;52.756;6.906;2023-07-28T11:16:39;20.40;99.90
52211;DHT22;38179;52.756;6.906;2023-07-28T11:19:11;20.40;99.90
52211;DHT22;38179;52.756;6.906;2023-07-28T11:21:41;20.30;99.90
52211;DHT22;38179;52.756;6.906;2023-07-28T11:24:08;20.40;99.90
52211;DHT22;38179;52.756;6.906;2023-07-28T11:26:38;20.40;99.90
52211;DHT22;38179;52.756;6.906;2023-07-28T11:29:04;20.40;99.90
52211;DHT22;38179;52.756;6.906;2023-07-28T11:31:31;20.30;99.90
52211;DHT22;38179;52.756;6.906;2023-07-28T11:33:59;20.30;99.90
52211;DHT22;38179;52.756;6.906;2023-07-28T11:36:26;20.10;99.90
52211;DHT22;38179;52.756;6.906;2023-07-28T11:38:55;20.10;99.90
52211;DHT22;38179;52.756;6.906;2023-07-28T11:41:21;20.00;99.90
52211;DHT22;38179;52.756;6.906;2023-07-28T11:43:51;20.00;99.90
52211;DHT22;38179;52.756;6.906;2023-07-28T11:46:36;20.00;99.90
52211;DHT22;38179;52.756;6.906;2023-07-28T11:51:37;20.00;99.90
52211;DHT22;38179;52.756;6.906;2023-07-28T11:54:06;20.00;99.90
52211;DHT22;38179;52.756;6.906;2023-07-28T11:56:32;19.90;99.90
52211;DHT22;38179;52.756;6.906;2023-07-28T11:58:58;19.90;99.90
52211;DHT22;38179;52.756;6.906;2023-07-28T12:01:24;19.90;99.90
52211;DHT22;38179;52.756;6.906;2023-07-28T12:03:50;19.90;99.90
52211;DHT22;38179;52.756;6.906;2023-07-28T12:06:16;19.90;99.90
52211;DHT22;38179;52.756;6.906;2023-07-28T12:08:42;19.90;99.90
52211;DHT22;38179;52.756;6.906;2023-07-28T12:11:13;20.00;99.90
52211;DHT22;38179;52.756;6.906;2023-07-28T12:13:52;20.00;99.90
52211;DHT22;38179;52.756;6.906;2023-07-28T12:16:40;20.20;99.90
52211;DHT22;38179;52.756;6.906;2023-07-28T12:19:09;20.40;99.90
52211;DHT22;38179;52.756;6.906;2023-07-28T12:21:35;20.50;99.90
52211;DHT22;38179;52.756;6.906;2023-07-28T12:24:01;20.70;99.90
52211;DHT22;38179;52.756;6.906;2023-07-28T12:26:26;20.80;99.90
52211;DHT22;38179;52.756;6.906;2023-07-28T12:28:52;20.90;99.90
52211;DHT22;38179;52.756;6.906;2023-07-28T12:31:18;21.00;99.90
52211;DHT22;38179;52.756;6.906;2023-07-28T12:33:44;21.20;99.90
52211;DHT22;38179;52.756;6.906;2023-07-28T12:36:10;21.30;99.90
52211;DHT22;38179;52.756;6.906;2023-07-28T12:38:36;21.40;99.90
52211;DHT22;38179;52.756;6.906;2023-07-28T12:41:02;21.50;99.90
52211;DHT22;38179;52.756;6.906;2023-07-28T12:43:27;21.60;99.90
52211;DHT22;38179;52.756;6.906;2023-07-28T12:45:54;21.70;99.90
52211;DHT22;38179;52.756;6.906;2023-07-28T12:48:20;21.70;99.90
52211;DHT22;38179;52.756;6.906;2023-07-28T12:50:46;21.80;99.90
52211;DHT22;38179;52.756;6.906;2023-07-28T12:53:12;21.90;99.90
52211;DHT22;38179;52.756;6.906;2023-07-28T12:55:38;22.00;99.90
52211;DHT22;38179;52.756;6.906;2023-07-28T12:58:04;22.00;99.90
52211;DHT22;38179;52.756;6.906;2023-07-28T13:00:29;22.00;99.90
52211;DHT22;38179;52.756;6.906;2023-07-28T13:02:56;22.00;99.90
52211;DHT22;38179;52.756;6.906;2023-07-28T13:05:21;22.00;99.90
52211;DHT22;38179;52.756;6.906;2023-07-28T13:07:47;22.10;99.90
52211;DHT22;38179;52.756;6.906;2023-07-28T13:10:13;22.20;99.90
52211;DHT22;38179;52.756;6.906;2023-07-28T13:12:39;22.20;99.90
52211;DHT22;38179;52.756;6.906;2023-07-28T13:15:05;22.30;99.90
52211;DHT22;38179;52.756;6.906;2023-07-28T13:17:31;22.20;99.90
52211;DHT22;38179;52.756;6.906;2023-07-28T13:19:57;22.20;99.90
52211;DHT22;38179;52.756;6.906;2023-07-28T13:22:24;22.30;99.90
52211;DHT22;38179;52.756;6.906;2023-07-28T13:24:52;22.30;99.90
52211;DHT22;38179;52.756;6.906;2023-07-28T13:27:18;22.30;99.90
52211;DHT22;38179;52.756;6.906;2023-07-28T13:29:44;22.30;99.90
52211;DHT22;38179;52.756;6.906;2023-07-28T13:32:36;22.40;99.90
52211;DHT22;38179;52.756;6.906;2023-07-28T13:35:03;22.50;99.90
52211;DHT22;38179;52.756;6.906;2023-07-28T13:37:30;22.60;99.90
52211;DHT22;38179;52.756;6.906;2023-07-28T13:39:56;22.70;99.90
52211;DHT22;38179;52.756;6.906;2023-07-28T13:42:22;22.80;99.90
52211;DHT22;38179;52.756;6.906;2023-07-28T13:44:48;22.90;99.90
52211;DHT22;38179;52.756;6.906;2023-07-28T13:47:14;22.90;99.90
52211;DHT22;38179;52.756;6.906;2023-07-28T13:49:39;22.90;99.90
52211;DHT22;38179;52.756;6.906;2023-07-28T13:52:06;23.00;99.90
52211;DHT22;38179;52.756;6.906;2023-07-28T13:54:32;23.10;99.90
52211;DHT22;38179;52.756;6.906;2023-07-28T13:56:58;23.30;99.90
52211;DHT22;38179;52.756;6.906;2023-07-28T13:59:24;23.30;99.90
52211;DHT22;38179;52.756;6.906;2023-07-28T14:01:52;23.40;99.90
52211;DHT22;38179;52.756;6.906;2023-07-28T14:04:19;23.40;99.90
52211;DHT22;38179;52.756;6.906;2023-07-28T14:06:45;23.40;99.90
52211;DHT22;38179;52.756;6.906;2023-07-28T14:09:11;23.60;99.90
52211;DHT22;38179;52.756;6.906;2023-07-28T14:11:38;23.50;99.90
52211;DHT22;38179;52.756;6.906;2023-07-28T14:14:04;23.50;99.90
52211;DHT22;38179;52.756;6.906;2023-07-28T14:16:30;23.50;99.90
52211;DHT22;38179;52.756;6.906;2023-07-28T14:18:56;23.60;99.90
52211;DHT22;38179;52.756;6.906;2023-07-28T14:21:22;23.60;99.90
52211;DHT22;38179;52.756;6.906;2023-07-28T14:23:48;23.70;99.90
52211;DHT22;38179;52.756;6.906;2023-07-28T14:26:13;23.70;99.90
52211;DHT22;38179;52.756;6.906;2023-07-28T14:28:39;23.70;99.90
52211;DHT22;38179;52.756;6.906;2023-07-28T14:31:05;23.60;99.90
52211;DHT22;38179;52.756;6.906;2023-07-28T14:33:31;23.60;99.90
52211;DHT22;38179;52.756;6.906;2023-07-28T14:35:57;23.40;99.90
52211;DHT22;38179;52.756;6.906;2023-07-28T14:38:23;23.40;99.90
52211;DHT22;38179;52.756;6.906;2023-07-28T14:40:49;23.30;99.90
52211;DHT22;38179;52.756;6.906;2023-07-28T14:43:17;23.40;99.90
52211;DHT22;38179;52.756;6.906;2023-07-28T14:45:44;23.50;99.90
52211;DHT22;38179;52.756;6.906;2023-07-28T14:48:10;23.50;99.90
52211;DHT22;38179;52.756;6.906;2023-07-28T14:50:36;23.40;99.90
52211;DHT22;38179;52.756;6.906;2023-07-28T14:53:02;23.30;99.90
52211;DHT22;38179;52.756;6.906;2023-07-28T14:55:28;23.30;99.90
52211;DHT22;38179;52.756;6.906;2023-07-28T14:57:54;23.20;99.90
52211;DHT22;38179;52.756;6.906;2023-07-28T15:00:20;23.10;99.90
52211;DHT22;38179;52.756;6.906;2023-07-28T15:02:46;23.10;99.90
52211;DHT22;38179;52.756;6.906;2023-07-28T15:05:12;23.20;99.90
52211;DHT22;38179;52.756;6.906;2023-07-28T15:07:38;23.30;99.90
52211;DHT22;38179;52.756;6.906;2023-07-28T15:10:04;23.30;99.90
52211;DHT22;38179;52.756;6.906;2023-07-28T15:12:30;23.50;99.90
52211;DHT22;38179;52.756;6.906;2023-07-28T15:14:56;23.50;99.90
52211;DHT22;38179;52.756;6.906;2023-07-28T15:17:22;23.50;99.90
52211;DHT22;38179;52.756;6.906;2023-07-28T15:19:48;23.40;99.90
52211;DHT22;38179;52.756;6.906;2023-07-28T15:22:14;23.30;99.90
52211;DHT22;38179;52.756;6.906;2023-07-28T15:24:40;23.20;99.90
52211;DHT22;38179;52.756;6.906;2023-07-28T15:27:06;23.20;99.90
52211;DHT22;38179;52.756;6.906;2023-07-28T15:29:32;23.20;99.90
52211;DHT22;38179;52.756;6.906;2023-07-28T15:31:58;23.20;99.90
52211;DHT22;38179;52.756;6.906;2023-07-28T15:34:24;23.10;99.90
52211;DHT22;38179;52.756;6.906;2023-07-28T15:36:50;23.10;99.90
52211;DHT22;38179;52.756;6.906;2023-07-28T15:39:16;23.00;99.90
52211;DHT22;38179;52.756;6.906;2023-07-28T15:41:42;22.90;99.90
52211;DHT22;38179;52.756;6.906;2023-07-28T15:44:08;23.00;99.90